Time;durP1;ratioP1;P1;durP2;ratioP2;P2;SDS_P1;SDS_P2;PMS_P1;PMS_P2;Temp;Humidity;BMP_temperature;BMP_pressure;BME280_temperature;BME280_humidity;BME280_pressure;Samples;Min_cycle;Max_cycle;Signal;HPM_P1;HPM_P2
2022/05/02 00:02:24;;;;;;;9.35;6.25;;;8.80;99.90;;;;;;5089354;28;20089;-38
2022/05/02 00:04:50;;;;;;;9.18;6.38;;;8.90;99.90;;;;;;5090197;28;20237;-38
2022/05/02 00:07:15;;;;;;;7.50;5.72;;;8.90;99.90;;;;;;5090382;28;20505;-38
2022/05/02 00:09:41;;;;;;;6.75;5.85;;;8.90;99.90;;;;;;5089884;28;20047;-38
2022/05/02 00:12:07;;;;;;;7.70;5.28;;;9.00;99.90;;;;;;5088014;28;20059;-38
2022/05/02 00:14:32;;;;;;;13.32;6.00;;;9.00;99.90;;;;;;5086557;28;20481;-44
2022/05/02 00:16:58;;;;;;;8.57;5.72;;;9.00;99.90;;;;;;5072693;28;20043;-39
2022/05/02 00:19:24;;;;;;;9.63;5.20;;;9.00;99.90;;;;;;5088125;28;20108;-39
2022/05/02 00:21:49;;;;;;;13.88;5.70;;;9.10;99.90;;;;;;5089396;28;20434;-39
2022/05/02 00:24:15;;;;;;;7.80;5.50;;;9.10;99.90;;;;;;5088489;28;20070;-39
2022/05/02 00:26:41;;;;;;;8.30;5.78;;;9.20;99.90;;;;;;5089745;28;20119;-39
2022/05/02 00:29:07;;;;;;;10.00;5.43;;;9.20;99.90;;;;;;5089637;28;20066;-39
2022/05/02 00:31:32;;;;;;;6.85;4.60;;;9.20;99.90;;;;;;5089075;28;20031;-40
2022/05/02 00:33:58;;;;;;;6.43;4.70;;;9.20;99.90;;;;;;5089458;28;20024;-39
2022/05/02 00:36:24;;;;;;;7.35;5.65;;;9.20;99.90;;;;;;5089711;28;20028;-39
2022/05/02 00:38:50;;;;;;;8.38;6.30;;;9.20;99.90;;;;;;5089717;28;20110;-39
2022/05/02 00:41:16;;;;;;;9.50;5.50;;;9.20;99.90;;;;;;5089730;28;20107;-39
2022/05/02 00:43:41;;;;;;;10.80;6.82;;;9.20;99.90;;;;;;5089347;28;20066;-39
2022/05/02 00:46:18;;;;;;;8.73;5.65;;;9.20;99.90;;;;;;5075518;28;20165;-38
2022/05/02 00:48:44;;;;;;;8.68;5.75;;;9.20;99.90;;;;;;5073971;28;20481;-39
2022/05/02 00:51:10;;;;;;;7.30;4.60;;;9.20;99.90;;;;;;5089298;28;20032;-39
2022/05/02 00:53:35;;;;;;;8.95;5.95;;;9.20;99.90;;;;;;5088791;28;20032;-39
2022/05/02 00:56:02;;;;;;;7.63;5.70;;;9.20;99.90;;;;;;5089024;28;20476;-38
2022/05/02 00:58:28;;;;;;;9.15;5.88;;;9.20;99.90;;;;;;5089014;28;20262;-38
2022/05/02 01:00:54;;;;;;;7.13;5.40;;;9.20;99.90;;;;;;5089109;28;20036;-38
2022/05/02 01:03:20;;;;;;;7.22;5.72;;;9.20;99.90;;;;;;5088489;28;20031;-38
2022/05/02 01:08:33;;;;;;;6.38;4.95;;;9.20;99.90;;;;;;5089308;28;20031;-38
2022/05/02 01:10:59;;;;;;;9.20;5.30;;;9.10;99.90;;;;;;5089375;28;20130;-38
2022/05/02 01:13:35;;;;;;;8.15;5.10;;;9.10;99.90;;;;;;5088177;28;20028;-38
2022/05/02 01:16:07;;;;;;;5.63;4.40;;;9.10;99.90;;;;;;5075124;28;20061;-38
2022/05/02 01:18:33;;;;;;;11.73;5.63;;;9.10;99.90;;;;;;5080524;28;20157;-38
2022/05/02 01:20:58;;;;;;;6.80;4.97;;;9.10;99.90;;;;;;5088565;28;20576;-46
2022/05/02 01:23:24;;;;;;;9.45;4.80;;;9.10;99.90;;;;;;5088250;28;20366;-39
2022/05/02 01:25:49;;;;;;;9.02;5.82;;;9.10;99.90;;;;;;5088659;28;20290;-39
2022/05/02 01:28:15;;;;;;;7.90;5.10;;;9.20;99.90;;;;;;5088644;28;20119;-39
2022/05/02 01:30:40;;;;;;;7.60;4.93;;;9.20;99.90;;;;;;5088710;28;20508;-39
2022/05/02 01:33:06;;;;;;;8.63;5.43;;;9.20;99.90;;;;;;5087806;28;20024;-39
2022/05/02 01:35:31;;;;;;;7.22;5.00;;;9.20;99.90;;;;;;5088421;28;20552;-39
2022/05/02 01:37:56;;;;;;;8.00;4.70;;;9.20;99.90;;;;;;5088811;28;20020;-38
2022/05/02 01:40:22;;;;;;;6.57;4.88;;;9.20;99.90;;;;;;5088614;28;20189;-38
2022/05/02 01:42:47;;;;;;;8.57;5.20;;;9.20;99.90;;;;;;5087792;28;20031;-38
2022/05/02 01:45:13;;;;;;;7.15;5.13;;;9.20;99.90;;;;;;5074925;28;20036;-38
2022/05/02 01:47:38;;;;;;;8.35;5.45;;;9.20;99.90;;;;;;5079849;28;20059;-38
2022/05/02 01:50:04;;;;;;;7.45;5.15;;;9.30;99.90;;;;;;5088526;28;20457;-38
2022/05/02 01:52:30;;;;;;;8.48;5.22;;;9.20;99.90;;;;;;5087912;28;20058;-38
2022/05/02 01:54:55;;;;;;;6.47;4.97;;;9.20;99.90;;;;;;5088329;28;20043;-38
2022/05/02 01:57:21;;;;;;;6.85;4.70;;;9.20;99.90;;;;;;5088396;28;20089;-38
2022/05/02 01:59:46;;;;;;;7.63;5.65;;;9.30;99.90;;;;;;5088693;28;20311;-38
2022/05/02 02:02:12;;;;;;;7.55;5.03;;;9.30;99.90;;;;;;5087609;28;20016;-39
2022/05/02 02:07:21;;;;;;;7.82;5.45;;;9.30;99.90;;;;;;5088652;28;20035;-38
2022/05/02 02:09:47;;;;;;;9.00;5.05;;;9.20;99.90;;;;;;5088315;28;20413;-37
2022/05/02 02:12:12;;;;;;;9.00;4.82;;;9.20;99.90;;;;;;5087843;28;20491;-37
2022/05/02 02:14:38;;;;;;;6.43;5.07;;;9.20;99.90;;;;;;5083355;28;20039;-37
2022/05/02 02:17:03;;;;;;;6.75;4.95;;;9.20;99.90;;;;;;5071698;28;20025;-38
2022/05/02 02:19:29;;;;;;;10.77;5.32;;;9.20;99.90;;;;;;5087548;28;20099;-38
2022/05/02 02:22:16;;;;;;;8.13;5.30;;;9.20;99.90;;;;;;5087664;28;20270;-38
2022/05/02 02:24:42;;;;;;;7.75;5.30;;;9.20;99.90;;;;;;5088396;28;20035;-38
2022/05/02 02:27:07;;;;;;;6.75;5.57;;;9.20;99.90;;;;;;5088555;28;20021;-38
2022/05/02 02:29:33;;;;;;;8.27;4.97;;;9.10;99.90;;;;;;5088189;28;20486;-39
2022/05/02 02:31:58;;;;;;;7.25;5.20;;;9.10;99.90;;;;;;5090173;28;20054;-38
2022/05/02 02:34:24;;;;;;;9.15;5.72;;;9.00;99.90;;;;;;5091793;28;20028;-38
2022/05/02 02:36:49;;;;;;;7.03;5.20;;;8.90;99.90;;;;;;5091752;28;20032;-38
2022/05/02 02:39:15;;;;;;;6.43;4.70;;;8.90;99.90;;;;;;5084916;28;20108;-38
2022/05/02 02:41:40;;;;;;;6.28;5.03;;;8.80;99.90;;;;;;5060755;28;20410;-38
2022/05/02 02:44:06;;;;;;;6.97;5.32;;;8.80;99.90;;;;;;5061588;28;20017;-38
2022/05/02 02:46:31;;;;;;;8.05;5.68;;;8.70;99.90;;;;;;5062360;28;20025;-38
2022/05/02 02:48:56;;;;;;;9.32;5.95;;;8.60;99.90;;;;;;5062185;28;20521;-39
2022/05/02 02:51:22;;;;;;;6.93;5.13;;;8.60;99.90;;;;;;5060744;28;20025;-46
2022/05/02 02:53:48;;;;;;;8.13;5.72;;;8.60;99.90;;;;;;5060636;28;20025;-39
2022/05/02 02:56:14;;;;;;;8.98;5.30;;;8.50;99.90;;;;;;5060383;28;20480;-39
2022/05/02 02:58:40;;;;;;;15.73;5.97;;;8.50;99.90;;;;;;5060981;28;20117;-39
2022/05/02 03:01:05;;;;;;;10.48;6.25;;;8.50;99.90;;;;;;5059953;28;20036;-39
2022/05/02 03:03:31;;;;;;;8.82;6.63;;;8.50;99.90;;;;;;5060780;28;20035;-39
2022/05/02 03:06:03;;;;;;;6.38;5.47;;;8.50;99.90;;;;;;5059849;28;20021;-39
2022/05/02 03:08:35;;;;;;;11.43;5.85;;;8.40;99.90;;;;;;5059874;28;20020;-39
2022/05/02 03:11:01;;;;;;;8.02;5.90;;;8.40;99.90;;;;;;5060649;28;20017;-39
2022/05/02 03:13:26;;;;;;;7.50;5.88;;;8.40;99.90;;;;;;5059434;28;20267;-39
2022/05/02 03:15:52;;;;;;;8.73;6.00;;;8.40;99.90;;;;;;5060472;28;20021;-39
2022/05/02 03:18:18;;;;;;;9.82;6.03;;;8.40;99.90;;;;;;5063748;28;20455;-39
2022/05/02 03:20:43;;;;;;;8.20;6.18;;;8.40;99.90;;;;;;5060570;28;20029;-39
2022/05/02 03:23:09;;;;;;;8.63;6.40;;;8.40;99.90;;;;;;5058756;28;20545;-39
2022/05/02 03:25:34;;;;;;;8.55;5.60;;;8.40;99.90;;;;;;5061410;28;20028;-39
2022/05/02 03:28:00;;;;;;;9.43;5.57;;;8.30;99.90;;;;;;5059934;28;20021;-39
2022/05/02 03:30:25;;;;;;;8.73;6.10;;;8.30;99.90;;;;;;5059110;28;20025;-39
2022/05/02 03:32:50;;;;;;;10.55;6.63;;;8.30;99.90;;;;;;5059701;28;20085;-40
2022/05/02 03:35:16;;;;;;;7.75;5.88;;;8.30;99.90;;;;;;5059385;28;20169;-39
2022/05/02 03:37:41;;;;;;;9.77;6.53;;;8.30;99.90;;;;;;5059453;28;20025;-39
2022/05/02 03:40:08;;;;;;;8.80;6.57;;;8.40;99.90;;;;;;5058110;28;20021;-39
2022/05/02 03:42:33;;;;;;;10.38;6.47;;;8.40;99.90;;;;;;5055235;28;20033;-39
2022/05/02 03:45:00;;;;;;;10.15;6.43;;;8.40;99.90;;;;;;5058644;28;20024;-39
2022/05/02 03:47:26;;;;;;;12.50;6.10;;;8.40;99.90;;;;;;5061757;28;20024;-39
2022/05/02 03:49:52;;;;;;;9.55;6.53;;;8.40;99.90;;;;;;5057923;28;20024;-39
2022/05/02 03:52:17;;;;;;;10.70;7.07;;;8.50;99.90;;;;;;5061159;28;20525;-39
2022/05/02 03:54:43;;;;;;;9.23;6.00;;;8.50;99.90;;;;;;5059245;28;20038;-40
2022/05/02 03:57:08;;;;;;;8.38;6.30;;;8.50;99.90;;;;;;5059401;28;20398;-40
2022/05/02 03:59:34;;;;;;;8.75;6.38;;;8.50;99.90;;;;;;5056572;28;20031;-39
2022/05/02 04:01:59;;;;;;;10.13;6.35;;;8.50;99.90;;;;;;5063003;28;20579;-38
2022/05/02 04:04:26;;;;;;;12.38;6.90;;;8.50;99.90;;;;;;5090083;28;20550;-38
2022/05/02 04:06:52;;;;;;;9.75;6.18;;;8.50;99.90;;;;;;5090374;28;20030;-38
2022/05/02 04:09:17;;;;;;;8.15;6.32;;;8.50;99.90;;;;;;5090083;28;20464;-39
2022/05/02 04:11:43;;;;;;;9.10;6.10;;;8.40;99.90;;;;;;5089327;28;20189;-39
2022/05/02 04:14:08;;;;;;;8.45;5.93;;;8.40;99.90;;;;;;5090381;28;20035;-39
2022/05/02 04:16:34;;;;;;;9.23;6.13;;;8.40;99.90;;;;;;5072333;28;20028;-39
2022/05/02 04:18:59;;;;;;;9.88;7.38;;;8.40;99.90;;;;;;5063282;28;20033;-38
2022/05/02 04:21:25;;;;;;;10.50;7.15;;;8.40;99.90;;;;;;5058485;28;20118;-38
2022/05/02 04:23:50;;;;;;;12.70;6.95;;;8.40;99.90;;;;;;5048941;28;20050;-39
2022/05/02 04:26:15;;;;;;;9.43;6.95;;;8.40;99.90;;;;;;5059188;28;20194;-39
2022/05/02 04:28:41;;;;;;;11.85;6.75;;;8.40;99.90;;;;;;5069578;28;20029;-39
2022/05/02 04:31:06;;;;;;;9.05;6.97;;;8.50;99.90;;;;;;5061263;28;20390;-38
2022/05/02 04:33:32;;;;;;;10.35;6.80;;;8.50;99.90;;;;;;5053882;28;20063;-39
2022/05/02 04:35:58;;;;;;;9.15;6.80;;;8.60;99.90;;;;;;5069069;28;20370;-38
2022/05/02 04:38:24;;;;;;;8.02;6.28;;;8.60;99.90;;;;;;5069334;28;20066;-39
2022/05/02 04:40:49;;;;;;;9.40;6.95;;;8.60;99.90;;;;;;5059133;28;20021;-38
2022/05/02 04:43:15;;;;;;;10.80;8.07;;;8.70;99.90;;;;;;5048451;28;20021;-38
2022/05/02 04:45:40;;;;;;;10.70;7.20;;;8.70;99.90;;;;;;5057519;28;20066;-37
2022/05/02 04:48:06;;;;;;;8.23;5.95;;;8.80;99.90;;;;;;5080577;28;20397;-37
2022/05/02 04:50:32;;;;;;;13.80;7.10;;;8.80;99.90;;;;;;5089387;28;20469;-37
2022/05/02 04:52:57;;;;;;;9.82;7.35;;;8.90;99.90;;;;;;5070057;28;20123;-37
2022/05/02 04:55:23;;;;;;;9.65;7.18;;;8.90;99.90;;;;;;5058041;28;20098;-37
2022/05/02 04:57:48;;;;;;;12.43;7.10;;;8.90;99.90;;;;;;5056867;28;20466;-37
2022/05/02 05:00:16;;;;;;;8.98;6.22;;;9.00;99.90;;;;;;5059867;28;20040;-37
2022/05/02 05:02:41;;;;;;;7.63;6.22;;;9.10;99.90;;;;;;5056774;28;20013;-37
2022/05/02 05:05:07;;;;;;;11.48;6.90;;;9.10;99.90;;;;;;5057112;28;20040;-37
2022/05/02 05:07:36;;;;;;;11.95;7.85;;;9.20;99.90;;;;;;5059377;28;20025;-37
2022/05/02 05:10:01;;;;;;;11.10;6.68;;;9.20;99.90;;;;;;5064718;28;20534;-37
2022/05/02 05:12:48;;;;;;;9.40;6.95;;;9.20;99.90;;;;;;5064416;28;20062;-37
2022/05/02 05:18:43;;;;;;;8.90;6.90;;;9.20;99.90;;;;;;5061112;28;20384;-37
2022/05/02 05:21:34;;;;;;;12.23;6.88;;;9.20;99.90;;;;;;5065199;28;20032;-37
2022/05/02 05:24:30;;;;;;;9.52;7.90;;;9.30;99.90;;;;;;5055742;28;20104;-37
2022/05/02 05:27:22;;;;;;;15.05;10.55;;;9.30;99.90;;;;;;5071990;28;20059;-36
2022/05/02 05:30:02;;;;;;;23.30;13.35;;;9.30;99.90;;;;;;5046753;28;20167;-38
2022/05/02 05:32:42;;;;;;;17.17;11.25;;;9.40;99.90;;;;;;5051741;28;20032;-37
2022/05/02 05:35:09;;;;;;;16.17;10.15;;;9.50;99.90;;;;;;5060975;28;20052;-37
2022/05/02 05:37:57;;;;;;;22.63;8.45;;;9.50;99.90;;;;;;5080190;28;20024;-37
2022/05/02 05:40:42;;;;;;;15.23;8.50;;;9.60;99.90;;;;;;5056498;28;20025;-37
2022/05/02 05:43:34;;;;;;;12.48;7.53;;;9.60;99.90;;;;;;5059928;28;20031;-38
2022/05/02 05:46:25;;;;;;;14.52;7.05;;;9.80;99.90;;;;;;5061533;28;20016;-38
2022/05/02 05:49:04;;;;;;;8.38;6.47;;;9.90;99.90;;;;;;5058811;28;20176;-38
2022/05/02 05:51:40;;;;;;;10.10;6.88;;;10.20;99.90;;;;;;5058272;28;20025;-38
2022/05/02 05:54:26;;;;;;;11.55;7.00;;;10.40;99.90;;;;;;5058783;28;20021;-38
2022/05/02 05:57:23;;;;;;;8.75;6.32;;;10.60;99.90;;;;;;5060517;28;20036;-37
2022/05/02 06:00:13;;;;;;;11.40;6.72;;;10.80;99.90;;;;;;5067150;28;20390;-38
2022/05/02 06:02:57;;;;;;;10.48;6.70;;;11.00;99.90;;;;;;5057011;28;20048;-38
2022/05/02 06:05:23;;;;;;;9.77;6.50;;;11.10;99.90;;;;;;5057639;28;20036;-38
2022/05/02 06:07:51;;;;;;;12.50;7.00;;;11.10;99.90;;;;;;5061127;28;20020;-38
2022/05/02 06:10:17;;;;;;;20.25;6.90;;;11.10;99.90;;;;;;5058820;28;20020;-38
2022/05/02 06:12:45;;;;;;;10.60;6.25;;;11.20;99.90;;;;;;5064425;28;20027;-38
2022/05/02 06:20:44;;;;;;;8.68;6.25;;;11.40;99.90;;;;;;5055171;28;20032;-38
2022/05/02 06:23:14;;;;;;;10.68;5.72;;;11.40;99.90;;;;;;5051298;28;20021;-38
2022/05/02 06:25:43;;;;;;;8.30;6.18;;;11.40;99.90;;;;;;5051859;28;20462;-38
2022/05/02 06:28:09;;;;;;;9.20;6.10;;;11.40;99.90;;;;;;5051778;28;20040;-40
2022/05/02 06:30:37;;;;;;;9.27;5.90;;;11.40;99.90;;;;;;5053682;28;20029;-47
2022/05/02 06:33:11;;;;;;;11.35;5.95;;;11.40;99.90;;;;;;5050777;28;20041;-46
2022/05/02 06:36:02;;;;;;;9.35;6.80;;;11.40;99.90;;;;;;5051246;28;20477;-47
2022/05/02 06:38:33;;;;;;;6.60;5.13;;;11.30;99.90;;;;;;5051433;28;20554;-49
2022/05/02 06:41:36;;;;;;;8.60;5.93;;;11.30;99.90;;;;;;5050308;28;20033;-46
2022/05/02 06:44:08;;;;;;;7.97;5.38;;;11.40;99.90;;;;;;5051765;28;20033;-47
2022/05/02 06:46:44;;;;;;;9.27;7.50;;;11.40;99.90;;;;;;5071616;28;20020;-47
2022/05/02 06:49:12;;;;;;;10.20;6.55;;;11.30;99.90;;;;;;5087993;28;20063;-48
2022/05/02 06:51:49;;;;;;;9.13;6.63;;;11.40;99.90;;;;;;5060582;28;20475;-47
2022/05/02 06:54:48;;;;;;;8.75;6.43;;;11.40;99.90;;;;;;5051454;28;20102;-47
2022/05/02 06:57:32;;;;;;;11.80;7.43;;;11.60;99.90;;;;;;5062256;28;20525;-46
2022/05/02 07:00:10;;;;;;;14.85;6.53;;;11.80;99.90;;;;;;5076562;28;20047;-46
2022/05/02 07:02:54;;;;;;;12.80;6.68;;;11.90;99.90;;;;;;5070301;28;20017;-46
2022/05/02 07:05:33;;;;;;;7.78;5.80;;;12.10;99.90;;;;;;5062739;28;20021;-47
2022/05/02 07:08:03;;;;;;;8.77;5.43;;;12.40;99.90;;;;;;5065132;28;20114;-48
2022/05/02 07:10:36;;;;;;;15.10;6.20;;;12.80;99.90;;;;;;5064780;28;20490;-47
2022/05/02 07:13:29;;;;;;;6.57;5.43;;;12.60;99.90;;;;;;5060076;28;20099;-49
2022/05/02 07:16:25;;;;;;;9.82;5.45;;;12.80;99.90;;;;;;5061584;28;20075;-46
2022/05/02 07:19:12;;;;;;;9.48;5.78;;;12.90;99.90;;;;;;5055940;28;20032;-47
2022/05/02 07:21:52;;;;;;;7.85;5.20;;;13.30;99.90;;;;;;5061663;28;20020;-47
2022/05/02 07:24:37;;;;;;;10.07;5.80;;;13.40;99.90;;;;;;5056966;28;20021;-48
2022/05/02 07:27:29;;;;;;;6.85;5.13;;;13.60;99.90;;;;;;5057883;28;20028;-46
2022/05/02 07:29:58;;;;;;;11.35;5.32;;;13.60;99.90;;;;;;5059795;28;20091;-46
2022/05/02 07:32:24;;;;;;;10.23;6.43;;;13.70;99.90;;;;;;5059234;28;20052;-47
2022/05/02 07:34:52;;;;;;;11.25;5.90;;;13.80;99.90;;;;;;5058271;28;20482;-48
2022/05/02 07:37:23;;;;;;;7.80;5.30;;;13.80;99.90;;;;;;5061399;28;20118;-50
2022/05/02 07:39:50;;;;;;;8.93;5.90;;;13.90;99.90;;;;;;5060738;28;20021;-48
2022/05/02 07:42:18;;;;;;;15.00;6.07;;;14.00;99.90;;;;;;5057125;28;20070;-48
2022/05/02 07:44:46;;;;;;;9.00;5.57;;;14.10;99.80;;;;;;5060479;28;20394;-47
2022/05/02 07:47:15;;;;;;;8.05;5.45;;;14.00;99.90;;;;;;5058395;28;20036;-46
2022/05/02 07:49:46;;;;;;;8.57;5.07;;;14.00;99.90;;;;;;5063265;28;20564;-47
2022/05/02 07:52:24;;;;;;;8.82;5.35;;;14.20;99.90;;;;;;5069608;28;20402;-48
2022/05/02 07:54:51;;;;;;;9.15;5.25;;;14.20;99.90;;;;;;5070470;28;20401;-46
2022/05/02 07:57:19;;;;;;;6.88;4.90;;;14.40;99.60;;;;;;5069376;28;20524;-47
2022/05/02 07:59:49;;;;;;;9.43;5.35;;;14.60;99.40;;;;;;5069981;28;20029;-47
2022/05/02 08:02:16;;;;;;;11.13;6.78;;;14.70;98.20;;;;;;5069071;28;20070;-46
2022/05/02 08:04:44;;;;;;;8.68;5.05;;;15.10;98.00;;;;;;5068559;28;20482;-47
2022/05/02 08:07:13;;;;;;;11.35;5.25;;;15.20;98.00;;;;;;5070153;28;20020;-47
2022/05/02 08:10:07;;;;;;;5.20;4.70;;;15.40;97.80;;;;;;5069897;28;20032;-47
2022/05/02 08:12:39;;;;;;;6.82;4.90;;;15.60;97.40;;;;;;5067455;28;20043;-47
2022/05/02 08:15:32;;;;;;;10.55;5.63;;;15.80;97.60;;;;;;5063744;28;20048;-47
2022/05/02 08:18:34;;;;;;;13.07;5.72;;;15.90;96.40;;;;;;5072799;28;20643;-48
2022/05/02 08:21:00;;;;;;;7.03;4.60;;;16.30;95.40;;;;;;5069045;28;20575;-46
2022/05/02 08:27:15;;;;;;;8.65;4.57;;;17.20;94.00;;;;;;5080649;28;20038;-46
2022/05/02 08:29:47;;;;;;;7.90;3.95;;;17.50;91.90;;;;;;5089458;28;20062;-47
2022/05/02 08:32:31;;;;;;;5.93;4.32;;;17.50;91.50;;;;;;5089018;28;20082;-47
2022/05/02 08:35:07;;;;;;;7.45;4.50;;;17.70;91.00;;;;;;5077692;28;20032;-47
2022/05/02 08:38:07;;;;;;;8.15;3.80;;;17.70;87.80;;;;;;5069356;28;20062;-48
2022/05/02 08:40:45;;;;;;;7.78;4.78;;;17.70;88.60;;;;;;5065440;28;20032;-47
2022/05/02 08:43:44;;;;;;;6.10;3.58;;;17.50;87.90;;;;;;5067390;28;20031;-46
2022/05/02 08:46:50;;;;;;;7.97;4.50;;;17.50;89.60;;;;;;5070335;28;20049;-47
2022/05/02 08:49:36;;;;;;;6.35;4.47;;;17.70;85.80;;;;;;5079319;28;20059;-47
2022/05/02 08:52:05;;;;;;;7.03;4.03;;;18.00;87.40;;;;;;5068620;28;20406;-49
2022/05/02 08:55:08;;;;;;;8.82;4.47;;;18.20;84.10;;;;;;5062912;28;20020;-47
2022/05/02 08:57:58;;;;;;;5.72;3.28;;;18.70;82.80;;;;;;5087592;28;20032;-48
2022/05/02 09:01:03;;;;;;;5.85;3.40;;;19.20;82.20;;;;;;5088803;28;20031;-48
2022/05/02 09:03:58;;;;;;;8.43;4.38;;;19.50;79.70;;;;;;5073222;28;20036;-50
2022/05/02 09:06:55;;;;;;;7.93;3.88;;;20.20;77.60;;;;;;5074358;28;20101;-47
2022/05/02 09:09:57;;;;;;;5.28;3.45;;;20.70;74.20;;;;;;5070066;28;20021;-47
2022/05/02 09:12:48;;;;;;;7.53;4.00;;;21.20;72.80;;;;;;5067877;28;20462;-47
2022/05/02 09:15:41;;;;;;;8.23;4.28;;;20.80;71.20;;;;;;5062127;28;20437;-49
2022/05/02 09:18:42;;;;;;;6.68;4.03;;;21.10;70.70;;;;;;5068420;28;20505;-48
2022/05/02 09:21:26;;;;;;;8.50;4.88;;;21.20;68.20;;;;;;5047247;28;20106;-49
2022/05/02 09:23:57;;;;;;;7.78;3.65;;;21.40;68.00;;;;;;5059372;28;20101;-50
2022/05/02 09:27:07;;;;;;;6.18;3.50;;;21.50;68.00;;;;;;5068564;28;20486;-48
2022/05/02 09:29:55;;;;;;;6.00;4.53;;;22.20;66.40;;;;;;5056210;28;20033;-47
2022/05/02 09:32:43;;;;;;;8.68;4.22;;;22.70;61.60;;;;;;5054706;28;20502;-45
2022/05/02 09:35:17;;;;;;;10.75;3.95;;;23.50;60.20;;;;;;5055810;28;20071;-46
2022/05/02 09:38:10;;;;;;;5.25;3.28;;;24.20;59.60;;;;;;5059240;28;20080;-46
2022/05/02 09:40:41;;;;;;;5.32;4.10;;;25.50;57.20;;;;;;5062361;28;20412;-46
2022/05/02 09:49:58;;;;;;;4.45;3.40;;;28.20;48.00;;;;;;5059833;28;20602;-47
2022/05/02 09:53:02;;;;;;;7.15;3.92;;;29.00;48.00;;;;;;5056953;28;20029;-48
2022/05/02 09:58:36;;;;;;;6.38;3.75;;;29.20;45.90;;;;;;5057222;28;21513;-47
2022/05/02 10:01:17;;;;;;;6.32;3.67;;;29.50;44.60;;;;;;5055374;28;20021;-47
2022/05/02 10:04:20;;;;;;;6.82;3.83;;;30.70;43.20;;;;;;5054628;28;20060;-47
2022/05/02 10:06:51;;;;;;;4.60;3.90;;;31.10;41.90;;;;;;5057068;28;20033;-49
2022/05/02 10:09:44;;;;;;;7.07;4.18;;;30.90;41.20;;;;;;5056266;28;20025;-48
2022/05/02 10:12:47;;;;;;;4.60;3.17;;;31.50;39.80;;;;;;5057570;28;20028;-48
2022/05/02 10:15:49;;;;;;;5.40;3.50;;;31.60;38.90;;;;;;5057294;28;20051;-49
2022/05/02 10:18:18;;;;;;;4.28;3.03;;;31.10;40.80;;;;;;5063292;28;20025;-50
2022/05/02 10:21:08;;;;;;;7.00;4.35;;;31.00;40.60;;;;;;5056206;28;20470;-48
2022/05/02 10:23:55;;;;;;;4.43;3.40;;;30.80;39.40;;;;;;5058067;28;20067;-47
2022/05/02 10:26:49;;;;;;;4.70;3.58;;;30.60;39.60;;;;;;5064502;28;20044;-46
2022/05/02 10:29:52;;;;;;;4.05;3.60;;;31.60;39.10;;;;;;5060818;28;20060;-49
2022/05/02 10:32:57;;;;;;;4.32;3.88;;;32.30;38.50;;;;;;5053730;28;20029;-49
2022/05/02 10:35:24;;;;;;;7.53;4.03;;;31.00;38.90;;;;;;5047252;28;20201;-48
2022/05/02 10:37:59;;;;;;;4.63;4.05;;;30.90;39.50;;;;;;5057638;28;20440;-47
2022/05/02 10:40:44;;;;;;;7.20;4.20;;;29.10;39.70;;;;;;5058015;28;20047;-50
2022/05/02 10:43:11;;;;;;;6.53;3.83;;;28.00;40.30;;;;;;5050645;28;20028;-49
2022/05/02 10:45:39;;;;;;;5.13;4.25;;;27.70;42.50;;;;;;5057176;28;20391;-46
2022/05/02 10:48:15;;;;;;;6.22;4.10;;;26.90;42.20;;;;;;5050936;28;20028;-49
2022/05/02 10:51:12;;;;;;;11.70;3.85;;;25.80;45.20;;;;;;5062680;28;20059;-49
2022/05/02 10:54:09;;;;;;;9.50;4.30;;;25.50;44.80;;;;;;5059017;28;20124;-46
2022/05/02 10:56:43;;;;;;;6.63;4.60;;;25.10;45.20;;;;;;5062288;28;20119;-47
2022/05/02 10:59:11;;;;;;;6.95;4.38;;;24.70;46.90;;;;;;5062313;28;20100;-48
2022/05/02 11:01:55;;;;;;;8.38;4.75;;;24.20;46.80;;;;;;5061288;28;20386;-50
2022/05/02 11:04:47;;;;;;;8.50;6.75;;;23.60;49.00;;;;;;5060845;28;20020;-48
2022/05/02 11:07:19;;;;;;;4.68;3.95;;;24.00;47.80;;;;;;5059642;28;20060;-47
2022/05/02 11:10:05;;;;;;;4.80;3.92;;;24.50;48.00;;;;;;5060341;28;20029;-50
2022/05/02 11:12:41;;;;;;;5.80;3.70;;;25.90;46.90;;;;;;5060588;28;20587;-50
2022/05/02 11:15:22;;;;;;;6.72;4.13;;;26.90;46.20;;;;;;5059380;28;20077;-47
2022/05/02 11:18:04;;;;;;;4.85;3.92;;;27.50;45.10;;;;;;5061508;28;20033;-49
2022/05/02 11:20:42;;;;;;;4.97;4.10;;;27.50;42.70;;;;;;5061259;28;20048;-45
2022/05/02 11:23:37;;;;;;;4.40;3.92;;;27.90;44.10;;;;;;5059078;28;20024;-46
2022/05/02 11:26:32;;;;;;;4.47;3.67;;;27.70;42.30;;;;;;5064186;28;20021;-45
2022/05/02 11:29:35;;;;;;;4.60;3.90;;;27.10;42.40;;;;;;5059847;28;20017;-45
2022/05/02 11:32:03;;;;;;;6.50;4.40;;;27.50;43.10;;;;;;5061766;28;20040;-45
2022/05/02 11:34:32;;;;;;;7.60;3.92;;;27.90;42.90;;;;;;5063355;28;20501;-45
2022/05/02 11:36:59;;;;;;;5.88;4.22;;;27.50;44.40;;;;;;5061526;28;20528;-45
2022/05/02 11:39:35;;;;;;;6.57;3.90;;;27.60;43.80;;;;;;5061019;28;20470;-46
2022/05/02 11:42:13;;;;;;;6.85;4.05;;;27.60;42.00;;;;;;5063475;28;20725;-45
2022/05/02 11:44:48;;;;;;;7.35;4.25;;;27.00;44.40;;;;;;5055853;28;20046;-46
2022/05/02 11:47:23;;;;;;;6.53;4.35;;;27.40;44.10;;;;;;5063884;28;20032;-45
2022/05/02 11:50:06;;;;;;;7.75;4.40;;;28.00;43.30;;;;;;5055740;28;20024;-45
2022/05/02 11:52:35;;;;;;;5.40;3.72;;;28.40;43.80;;;;;;5062517;28;20029;-45
2022/05/02 11:55:04;;;;;;;5.55;3.38;;;29.20;42.30;;;;;;5059250;28;20044;-45
2022/05/02 11:57:37;;;;;;;8.50;4.43;;;29.00;43.30;;;;;;5059953;28;20016;-47
2022/05/02 12:00:05;;;;;;;4.53;3.80;;;29.40;42.60;;;;;;5058085;28;20021;-47
2022/05/02 12:02:37;;;;;;;6.95;4.47;;;29.40;41.40;;;;;;5057768;28;20017;-47
2022/05/02 12:05:19;;;;;;;4.28;3.88;;;28.60;41.90;;;;;;5058286;28;20659;-47
2022/05/02 12:07:52;;;;;;;6.07;3.90;;;28.30;44.50;;;;;;5058396;28;20040;-47
2022/05/02 12:10:19;;;;;;;6.22;4.00;;;28.00;42.30;;;;;;5058676;28;20040;-46
2022/05/02 12:12:52;;;;;;;5.50;4.43;;;27.20;44.00;;;;;;5059920;28;20024;-48
2022/05/02 12:15:19;;;;;;;7.00;4.47;;;26.30;42.30;;;;;;5060333;28;20035;-49
2022/05/02 12:18:06;;;;;;;6.60;5.07;;;26.00;42.70;;;;;;5064926;28;20274;-47
2022/05/02 12:20:40;;;;;;;4.78;4.13;;;25.60;44.40;;;;;;5060228;28;20148;-47
2022/05/02 12:23:08;;;;;;;7.22;4.10;;;24.50;44.90;;;;;;5057770;28;20045;-49
2022/05/02 12:25:34;;;;;;;7.70;5.05;;;24.10;46.70;;;;;;5062699;28;20461;-47
2022/05/02 12:28:03;;;;;;;5.72;4.60;;;23.30;48.00;;;;;;5061225;28;20099;-46
2022/05/02 12:30:30;;;;;;;8.02;5.20;;;22.80;48.10;;;;;;5060293;28;20039;-46
2022/05/02 12:33:01;;;;;;;7.97;5.53;;;22.70;48.10;;;;;;5059452;28;20525;-46
2022/05/02 12:35:42;;;;;;;10.75;5.30;;;22.50;49.60;;;;;;5058945;28;20017;-47
2022/05/02 12:38:15;;;;;;;10.50;5.05;;;23.00;50.00;;;;;;5059010;28;20017;-46
2022/05/02 12:40:41;;;;;;;9.68;5.05;;;23.30;51.90;;;;;;5058159;28;20568;-46
2022/05/02 12:43:23;;;;;;;5.18;4.40;;;23.30;48.00;;;;;;5064178;28;20021;-46
2022/05/02 12:45:48;;;;;;;9.45;5.07;;;22.90;49.30;;;;;;5060111;28;20390;-46
2022/05/02 12:48:39;;;;;;;9.25;4.75;;;22.00;49.80;;;;;;5058567;28;20180;-49
2022/05/02 12:51:08;;;;;;;7.82;5.90;;;21.40;52.10;;;;;;5059112;28;20024;-46
2022/05/02 12:56:18;;;;;;;8.68;4.45;;;21.30;52.60;;;;;;5060521;28;20059;-46
2022/05/02 13:01:42;;;;;;;8.63;4.57;;;22.30;52.30;;;;;;5059540;28;20051;-48
2022/05/02 13:04:17;;;;;;;6.25;4.00;;;23.00;52.90;;;;;;5058303;28;20016;-47
2022/05/02 13:06:44;;;;;;;7.30;5.25;;;23.50;52.10;;;;;;5056462;28;20505;-47
2022/05/02 13:09:19;;;;;;;6.95;4.80;;;24.00;50.90;;;;;;5059042;28;20033;-48
2022/05/02 13:11:45;;;;;;;7.25;4.22;;;24.30;50.80;;;;;;5050762;28;20017;-48
2022/05/02 13:14:23;;;;;;;10.43;5.93;;;24.50;49.80;;;;;;5044667;28;20033;-46
2022/05/02 13:16:49;;;;;;;8.77;5.72;;;24.50;51.20;;;;;;5067943;28;20229;-46
2022/05/02 13:19:15;;;;;;;11.77;5.90;;;24.70;46.80;;;;;;5084395;28;20632;-47
2022/05/02 13:21:41;;;;;;;5.75;4.43;;;24.00;46.60;;;;;;5055002;28;20111;-47
2022/05/02 13:24:12;;;;;;;7.95;4.85;;;23.60;49.00;;;;;;5054242;28;20497;-47
2022/05/02 13:27:02;;;;;;;21.15;15.13;;;23.90;50.50;;;;;;5054867;28;20376;-46
2022/05/02 13:29:40;;;;;;;17.02;6.05;;;23.60;48.90;;;;;;5056480;28;20024;-46
2022/05/02 13:32:14;;;;;;;8.82;4.80;;;23.90;49.80;;;;;;5055194;28;20343;-46
2022/05/02 13:35:05;;;;;;;6.05;4.28;;;24.20;51.20;;;;;;5057374;28;20029;-46
2022/05/02 13:37:55;;;;;;;8.45;4.38;;;24.20;50.40;;;;;;5053495;28;20474;-46
2022/05/02 13:40:22;;;;;;;9.48;5.03;;;24.10;51.00;;;;;;5057749;28;20024;-46
2022/05/02 13:43:00;;;;;;;9.05;5.38;;;24.10;48.40;;;;;;5055461;28;20398;-44
2022/05/02 13:46:03;;;;;;;6.47;5.15;;;24.20;48.90;;;;;;5059995;28;20069;-45
2022/05/02 13:48:55;;;;;;;9.50;5.70;;;24.20;50.10;;;;;;5061673;28;20027;-45
2022/05/02 13:51:32;;;;;;;11.45;5.78;;;24.00;49.80;;;;;;5058197;28;20068;-45
2022/05/02 13:54:00;;;;;;;12.43;5.90;;;23.70;50.10;;;;;;5057489;28;20100;-46
2022/05/02 13:56:54;;;;;;;6.40;4.50;;;23.60;51.40;;;;;;5055254;28;20390;-47
2022/05/02 13:59:42;;;;;;;10.05;5.75;;;23.60;51.20;;;;;;5053904;28;20032;-46